• Join FlightAware (Why Join?)
  • Login
  • US Flag 
04:14PM EDT


 

Airport Tracker/Info


-or-


 

Live Flight TrackerFlight Track Log ✈ N449ND ✈ 02-Apr-2014 ✈ KMCO - KFPR

Flight Track Log - Related Links

Times and Time Zones

All times are in EDT time to prevent confusion due to time zone crossing. See the N449ND flight status page for this flight to view local times or setup timezone preferences in your user account.

Time Position Orientation Groundspeed Altitude Reporting Facility
EDT Latitude Longitude Course Direction KTS MPH feet Rate Location/Type
11:04PM 28.4333 -81.2667 90° East 76 87 1,000  Level Orlando TRACON
11:05PM 28.4333 -81.2333 90° East 81 93 1,500 300 Climbing Orlando TRACON
11:06PM 28.4333 -81.2167 90° East 92 106 1,600 240 Climbing Orlando TRACON
11:07PM 28.4333 -81.1833 90° East 90 104 2,000 360 Climbing Orlando TRACON
11:08PM 28.4333 -81.1500 90° East 84 97 2,400 240 Climbing Orlando TRACON
11:09PM 28.4333 -81.1167 90° East 100 115 2,600  Climbing Orlando TRACON
11:10PM 28.4333 -81.0833 90° East 120 138 2,500 -60 Descending Orlando TRACON
11:11PM 28.4333 -81.0500 90° East 112 129 2,500 -120 Level Orlando TRACON
11:12PM 28.4000 -81.0333 156° South 116 133 2,300 -60 Descending Orlando TRACON
11:13PM 28.3833 -81.0167 139° Southeast 107 123 2,400 60 Climbing Orlando TRACON
11:14PM 28.3500 -80.9833 139° Southeast 108 124 2,500 60 Climbing Orlando TRACON
11:15PM 28.3333 -80.9667 139° Southeast 107 123 2,600  Climbing Orlando TRACON
11:16PM 28.3167 -80.9500 139° Southeast 114 131 2,500 -60 Descending Orlando TRACON
11:17PM 28.2833 -80.9167 139° Southeast 114 131 2,500 -60 Level Orlando TRACON
11:18PM 28.2500 -80.9000 156° South 114 131 2,400  Descending Orlando TRACON
11:19PM 28.2333 -80.9000 180° South 110 127 2,500  Climbing Orlando TRACON
11:20PM 28.2000 -80.8667 139° Southeast 111 128 2,400 -120 Descending Orlando TRACON
11:21PM 28.1667 -80.8500 156° South 114 131 2,300 -60 Descending Orlando TRACON
11:22PM 28.1500 -80.8500 180° South 108 124 2,300  Level Orlando TRACON
11:23PM 28.1167 -80.8333 156° South 111 128 2,400  Climbing Orlando TRACON
11:24PM 28.1000 -80.8167 139° Southeast 107 123 2,400  Level Orlando TRACON
11:25PM 28.0667 -80.7833 139° Southeast 108 124 2,500 60 Climbing Orlando TRACON
11:26PM 28.0500 -80.7667 139° Southeast 105 121 2,600 60 Climbing Orlando TRACON
11:27PM 28.0167 -80.7500 156° South 106 122 2,700 120 Climbing Orlando TRACON
11:28PM 28.0000 -80.7333 139° Southeast 107 123 2,900 60 Climbing Orlando TRACON
11:29PM 27.9667 -80.7167 156° South 114 131 2,900  Level Orlando TRACON
11:30PM 27.9500 -80.7000 139° Southeast 109 125 3,000 120 Climbing Orlando TRACON
11:31PM 27.9333 -80.6833 139° Southeast 111 128 3,200 180 Climbing Orlando TRACON
11:33PM 27.8951 -80.6679 148° Southeast  Level FlightAware Approximate
11:40PM 27.7207 -80.5431 148° Southeast  Level FlightAware Approximate
11:41PM 27.6958 -80.5253 148° Southeast  Level FlightAware Approximate
11:42PM 27.6709 -80.5076 148° Southeast  Level FlightAware Approximate
11:43PM 27.6459 -80.4898 148° Southeast  Level FlightAware Approximate
11:44PM 27.6210 -80.4720 148° Southeast  Level FlightAware Approximate
11:45PM 27.5961 -80.4542 148° Southeast  Level FlightAware Approximate
11:46PM 27.5711 -80.4365 148° Southeast  Level FlightAware Approximate
11:47PM 27.5484 -80.4155 146° Southeast  Level FlightAware Approximate
11:48PM 27.5238 -80.3970 146° Southeast  Level FlightAware Approximate
11:49PM 27.4993 -80.3786 146° Southeast  Level FlightAware Approximate
11:50PM 27.4975 -80.3726 146° Southeast  Level Estimated
11:51PM 27.4975 -80.3726 159° South  Level Estimated
11:52PM 27.4975 -80.3726 159° South  Level Estimated
11:53PM 27.4975 -80.3726 146° Southeast  Level Estimated
11:54PM 27.4975 -80.3726 159° South  Level Estimated
11:55PM 27.4975 -80.3726 159° South  Level Estimated
11:56PM 27.4975 -80.3726 146° Southeast  Level Estimated
11:57PM 27.4975 -80.3726 159° South  Level Estimated
11:58PM 27.4975 -80.3726 159° South  Level Estimated
11:59PM 27.4975 -80.3726 146° Southeast  Level Estimated
12:00AM 27.4975 -80.3726 159° South  Level Estimated
12:01AM 27.4975 -80.3726 159° South  Level Estimated
12:02AM 27.4975 -80.3726 146° Southeast  Level Estimated
12:03AM 27.4975 -80.3726 159° South  Level Estimated
12:04AM 27.4975 -80.3726 159° South  Level Estimated
12:05AM 27.4975 -80.3726 146° Southeast  Level Estimated
12:06AM 27.4975 -80.3726 159° South  Level Estimated